Time;durP1;ratioP1;P1;durP2;ratioP2;P2;SDS_P1;SDS_P2;PMS_P1;PMS_P2;Temp;Humidity;BMP_temperature;BMP_pressure;BME280_temperature;BME280_humidity;BME280_pressure;Samples;Min_cycle;Max_cycle;Signal;HPM_P1;HPM_P2
2022/10/09 00:01:49;;;;;;;404.10;382.77;;;7.20;39.70;;;;;;4993370;28;20328;-67
2022/10/09 00:04:15;;;;;;;443.90;421.03;;;7.20;39.90;;;;;;4994767;28;20178;-67
2022/10/09 00:06:40;;;;;;;403.37;382.40;;;7.20;39.90;;;;;;4994754;28;20185;-67
2022/10/09 00:09:06;;;;;;;413.07;390.53;;;7.20;39.90;;;;;;4994665;28;20200;-67
2022/10/09 00:11:33;;;;;;;450.87;428.97;;;7.20;39.90;;;;;;4994295;28;20192;-67
2022/10/09 00:13:59;;;;;;;447.07;422.70;;;7.10;39.90;;;;;;4993409;28;20195;-67
2022/10/09 00:16:25;;;;;;;447.53;425.07;;;7.10;39.80;;;;;;4994400;28;20473;-67
2022/10/09 00:18:51;;;;;;;428.97;406.47;;;7.10;41.00;;;;;;4994473;28;20432;-66
2022/10/09 00:21:25;;;;;;;426.43;403.40;;;7.10;39.80;;;;;;4994229;28;20422;-66
2022/10/09 00:23:53;;;;;;;407.80;387.20;;;7.10;39.80;;;;;;4993214;28;20218;-69
2022/10/09 00:26:19;;;;;;;332.57;313.23;;;7.00;39.80;;;;;;4994299;28;20419;-69
2022/10/09 00:28:45;;;;;;;412.80;392.17;;;7.00;40.60;;;;;;4994210;28;20432;-69
2022/10/09 00:31:11;;;;;;;406.83;385.20;;;7.00;40.10;;;;;;4993893;28;20207;-69
2022/10/09 00:33:37;;;;;;;417.73;396.33;;;7.00;40.30;;;;;;4994296;28;20865;-67
2022/10/09 00:36:12;;;;;;;448.97;426.13;;;7.00;41.30;;;;;;4993061;28;20467;-69
2022/10/09 00:38:38;;;;;;;448.90;426.63;;;7.00;39.80;;;;;;4993987;28;20701;-67
2022/10/09 00:41:04;;;;;;;421.60;400.33;;;7.00;41.10;;;;;;4993758;28;20448;-68
2022/10/09 00:43:57;;;;;;;427.20;405.50;;;7.00;39.80;;;;;;4994277;28;20781;-67
2022/10/09 00:46:26;;;;;;;427.47;406.13;;;6.90;40.70;;;;;;4992134;28;20435;-67
2022/10/09 00:49:10;;;;;;;464.07;440.43;;;7.00;40.40;;;;;;4993788;28;20527;-67
2022/10/09 00:51:36;;;;;;;450.17;428.17;;;6.90;40.40;;;;;;4992405;28;20460;-68
2022/10/09 00:54:06;;;;;;;402.73;382.17;;;6.90;40.10;;;;;;4993718;28;20804;-68
2022/10/09 00:56:33;;;;;;;451.20;428.47;;;6.90;40.90;;;;;;4993859;28;20467;-68
2022/10/09 00:58:59;;;;;;;388.80;369.30;;;6.90;42.00;;;;;;4993830;28;20427;-67
2022/10/09 01:01:24;;;;;;;499.67;474.77;;;6.90;40.70;;;;;;4992491;28;20942;-67
2022/10/09 01:03:50;;;;;;;393.20;372.03;;;6.80;40.10;;;;;;4994190;28;20419;-68
2022/10/09 01:06:47;;;;;;;469.53;446.13;;;6.70;41.60;;;;;;4993757;28;20417;-67
2022/10/09 01:09:19;;;;;;;415.97;395.10;;;6.80;41.90;;;;;;4993980;28;20675;-67
2022/10/09 01:12:08;;;;;;;231.57;218.13;;;6.80;42.10;;;;;;4993298;28;20412;-67
2022/10/09 01:14:41;;;;;;;497.30;471.67;;;6.80;41.20;;;;;;4994314;28;20503;-67
2022/10/09 01:17:16;;;;;;;426.17;403.83;;;6.70;42.40;;;;;;4995072;28;20499;-69
2022/10/09 01:20:43;;;;;;;467.47;444.70;;;6.70;43.00;;;;;;4992363;28;20442;-68
2022/10/09 01:23:31;;;;;;;400.57;380.47;;;6.70;44.10;;;;;;4970800;28;20468;-69
2022/10/09 01:26:15;;;;;;;412.83;391.77;;;6.70;42.50;;;;;;4993409;28;20420;-68
2022/10/09 01:28:53;;;;;;;371.83;352.10;;;6.70;42.10;;;;;;4993373;28;20435;-68
2022/10/09 01:31:21;;;;;;;454.77;432.40;;;6.50;41.80;;;;;;4993077;28;20815;-68
2022/10/09 01:33:48;;;;;;;461.03;437.97;;;6.60;43.00;;;;;;4993163;28;20821;-68
2022/10/09 01:36:16;;;;;;;425.10;403.20;;;6.50;41.80;;;;;;4993038;28;20467;-67
2022/10/09 01:38:43;;;;;;;456.70;434.00;;;6.50;43.70;;;;;;4993567;28;20452;-69
2022/10/09 01:41:09;;;;;;;358.70;339.70;;;6.70;42.10;;;;;;4992731;28;20411;-69
2022/10/09 01:43:35;;;;;;;437.73;415.63;;;6.60;41.20;;;;;;4993399;28;20427;-69
2022/10/09 01:46:23;;;;;;;436.43;414.43;;;6.50;41.60;;;;;;4991461;28;20196;-69
2022/10/09 01:49:06;;;;;;;440.87;418.43;;;6.50;42.50;;;;;;4992879;28;20212;-69
2022/10/09 01:51:44;;;;;;;525.20;498.13;;;6.60;41.00;;;;;;4992684;28;20427;-69
2022/10/09 01:54:13;;;;;;;451.43;429.03;;;6.50;40.60;;;;;;4992725;28;20822;-69
2022/10/09 01:56:41;;;;;;;426.40;405.00;;;6.40;42.60;;;;;;4992610;28;20533;-69
2022/10/09 01:59:12;;;;;;;380.13;360.23;;;6.60;41.80;;;;;;4991414;28;20444;-69
2022/10/09 02:01:40;;;;;;;228.17;213.83;;;6.50;40.80;;;;;;4992599;28;20504;-69
2022/10/09 02:04:08;;;;;;;401.20;380.67;;;6.40;42.10;;;;;;4992869;28;20422;-69
2022/10/09 02:06:37;;;;;;;348.80;330.43;;;6.30;42.80;;;;;;4992755;28;20462;-68
2022/10/09 02:09:05;;;;;;;377.00;358.20;;;6.30;42.80;;;;;;4992512;28;20444;-69
2022/10/09 02:11:34;;;;;;;231.00;217.83;;;6.30;43.60;;;;;;4992337;28;20432;-69
2022/10/09 02:14:00;;;;;;;525.27;496.93;;;6.30;42.90;;;;;;4992547;28;20423;-69
2022/10/09 02:16:42;;;;;;;363.13;343.70;;;6.30;44.30;;;;;;4992499;28;20467;-69
2022/10/09 02:19:11;;;;;;;450.00;427.30;;;6.30;43.70;;;;;;4992846;28;20751;-69
2022/10/09 02:21:51;;;;;;;459.43;436.57;;;6.30;44.10;;;;;;4990872;28;20455;-69
2022/10/09 02:24:19;;;;;;;457.13;434.33;;;6.40;44.40;;;;;;4991174;28;20424;-69
2022/10/09 02:26:45;;;;;;;480.00;456.50;;;6.40;43.40;;;;;;4992493;28;21013;-69
2022/10/09 02:29:12;;;;;;;242.00;228.17;;;6.30;44.30;;;;;;4992307;28;20526;-69
2022/10/09 02:31:40;;;;;;;371.73;351.83;;;6.30;43.00;;;;;;4992147;28;20231;-69
2022/10/09 02:34:15;;;;;;;470.80;447.03;;;6.20;44.00;;;;;;4992616;28;20969;-70
2022/10/09 02:36:40;;;;;;;440.67;417.63;;;6.30;45.10;;;;;;4992426;28;20825;-69
2022/10/09 02:39:06;;;;;;;439.53;417.23;;;6.30;43.70;;;;;;4992330;28;20493;-69
2022/10/09 02:41:32;;;;;;;442.60;420.13;;;6.30;43.50;;;;;;4990885;28;20204;-69
2022/10/09 02:43:58;;;;;;;446.90;423.60;;;6.20;43.00;;;;;;4991669;28;20467;-69
2022/10/09 02:46:24;;;;;;;455.57;432.57;;;6.20;43.70;;;;;;4992678;28;20474;-69
2022/10/09 02:48:49;;;;;;;394.37;373.87;;;6.30;42.70;;;;;;4992328;28;20231;-69
2022/10/09 02:51:16;;;;;;;389.93;369.87;;;6.20;43.40;;;;;;4992224;28;20188;-68
2022/10/09 02:53:41;;;;;;;285.90;269.27;;;6.30;43.30;;;;;;4992135;28;20431;-68
2022/10/09 02:56:07;;;;;;;433.40;411.20;;;6.20;42.60;;;;;;4990910;28;20980;-68
2022/10/09 02:58:34;;;;;;;358.07;334.43;;;6.10;43.30;;;;;;4993227;28;20196;-68
2022/10/09 03:01:00;;;;;;;259.03;244.67;;;6.10;43.00;;;;;;4995847;28;20184;-68
2022/10/09 03:03:25;;;;;;;444.87;422.53;;;6.00;43.40;;;;;;4995989;28;20403;-68
2022/10/09 03:06:00;;;;;;;441.00;418.67;;;5.90;43.90;;;;;;4996167;28;20416;-68
2022/10/09 03:08:26;;;;;;;414.50;394.03;;;5.90;43.60;;;;;;4995403;28;20199;-68
2022/10/09 03:10:51;;;;;;;483.60;459.63;;;5.80;43.90;;;;;;4993726;28;21012;-68
2022/10/09 03:13:17;;;;;;;450.80;428.53;;;5.90;44.80;;;;;;4995454;28;20206;-68
2022/10/09 03:15:42;;;;;;;451.10;428.53;;;5.80;43.90;;;;;;4995727;28;20685;-68
2022/10/09 03:18:08;;;;;;;480.47;456.67;;;5.80;45.30;;;;;;4992156;28;20277;-68
2022/10/09 03:20:33;;;;;;;391.20;370.93;;;5.80;43.90;;;;;;4980323;28;20658;-68
2022/10/09 03:22:59;;;;;;;384.70;364.30;;;5.90;44.50;;;;;;4976072;28;20298;-68
2022/10/09 03:25:24;;;;;;;452.77;431.13;;;5.90;44.20;;;;;;4988903;28;20190;-68
2022/10/09 03:27:50;;;;;;;331.40;313.67;;;5.90;45.60;;;;;;4995550;28;20259;-68
2022/10/09 03:30:15;;;;;;;384.33;365.00;;;5.80;45.80;;;;;;4995481;28;20192;-68
2022/10/09 03:32:41;;;;;;;228.13;214.57;;;5.90;46.00;;;;;;4995236;28;20752;-68
2022/10/09 03:35:08;;;;;;;541.30;515.17;;;5.90;46.10;;;;;;4995674;28;20176;-67
2022/10/09 03:37:33;;;;;;;526.87;501.63;;;5.90;48.00;;;;;;4995226;28;20299;-68
2022/10/09 03:39:59;;;;;;;413.70;388.73;;;6.00;47.90;;;;;;4993928;28;20486;-68
2022/10/09 03:42:25;;;;;;;508.77;484.33;;;6.00;47.30;;;;;;4995137;28;20196;-68
2022/10/09 03:44:50;;;;;;;416.57;388.70;;;6.00;47.00;;;;;;4993980;28;20179;-68
2022/10/09 03:47:16;;;;;;;435.30;413.97;;;6.00;47.00;;;;;;4995371;28;20208;-69
2022/10/09 03:49:42;;;;;;;381.13;360.83;;;6.10;47.70;;;;;;4995049;28;20199;-68
2022/10/09 03:52:07;;;;;;;348.67;329.80;;;6.10;48.60;;;;;;4994844;28;20481;-68
2022/10/09 03:54:33;;;;;;;416.33;395.03;;;6.00;47.10;;;;;;4995068;28;20185;-68
2022/10/09 03:56:59;;;;;;;512.47;487.40;;;6.10;48.10;;;;;;4993823;28;20565;-68
2022/10/09 03:59:24;;;;;;;390.27;369.77;;;6.10;48.20;;;;;;4994947;28;20195;-68
2022/10/09 04:01:50;;;;;;;494.80;469.60;;;6.10;47.70;;;;;;4995008;28;20178;-69
2022/10/09 04:04:16;;;;;;;495.93;471.07;;;6.20;48.20;;;;;;4994991;28;20173;-69
2022/10/09 04:06:42;;;;;;;405.53;385.57;;;6.30;46.40;;;;;;4994984;28;20440;-69
2022/10/09 04:09:08;;;;;;;475.57;451.97;;;6.20;45.30;;;;;;4994748;28;20712;-69
2022/10/09 04:11:34;;;;;;;483.97;460.20;;;6.20;45.50;;;;;;4994689;28;20419;-69
2022/10/09 04:14:00;;;;;;;485.53;463.13;;;6.20;45.50;;;;;;4994801;28;20500;-68
2022/10/09 04:16:26;;;;;;;428.30;405.67;;;6.20;45.10;;;;;;4994993;28;20459;-68
2022/10/09 04:18:51;;;;;;;457.50;434.10;;;6.20;44.90;;;;;;4994546;28;20443;-69
2022/10/09 04:21:17;;;;;;;452.33;429.47;;;6.00;45.00;;;;;;4994315;28;20282;-68
2022/10/09 04:23:42;;;;;;;555.70;528.07;;;6.00;46.20;;;;;;4994465;28;20177;-69
2022/10/09 04:26:10;;;;;;;477.60;453.00;;;6.10;46.60;;;;;;4995028;28;20204;-69
2022/10/09 04:28:36;;;;;;;408.97;388.47;;;6.00;46.20;;;;;;4995379;28;20195;-69
2022/10/09 04:31:02;;;;;;;453.03;430.50;;;6.00;45.50;;;;;;4995433;28;20419;-68
2022/10/09 04:33:27;;;;;;;458.63;435.20;;;6.00;46.90;;;;;;4995466;28;20179;-68
2022/10/09 04:35:54;;;;;;;428.90;407.53;;;6.00;47.10;;;;;;4995425;28;20704;-68
2022/10/09 04:38:20;;;;;;;478.17;453.73;;;6.00;45.70;;;;;;4993722;28;20210;-68
2022/10/09 04:41:00;;;;;;;453.87;430.97;;;6.00;47.00;;;;;;4994990;28;20505;-68
2022/10/09 04:43:26;;;;;;;319.47;300.63;;;6.00;46.40;;;;;;4994061;28;20427;-68
2022/10/09 04:45:52;;;;;;;362.60;343.60;;;6.10;46.20;;;;;;4995038;28;20412;-68
2022/10/09 04:48:17;;;;;;;426.40;404.77;;;5.90;46.00;;;;;;4994866;28;20908;-68
2022/10/09 04:50:43;;;;;;;484.07;459.77;;;5.90;46.80;;;;;;4994267;28;20423;-68
2022/10/09 04:53:08;;;;;;;522.53;496.20;;;6.00;48.40;;;;;;4994108;28;20591;-68
2022/10/09 04:55:39;;;;;;;471.97;447.53;;;5.80;48.30;;;;;;4994319;28;20180;-68
2022/10/09 04:58:05;;;;;;;236.97;222.40;;;6.00;48.00;;;;;;4993858;28;20187;-68
2022/10/09 05:00:30;;;;;;;458.13;434.57;;;5.90;46.20;;;;;;4992960;28;20432;-68
2022/10/09 05:02:56;;;;;;;430.20;407.50;;;5.90;48.10;;;;;;4992433;28;20423;-69
2022/10/09 05:05:21;;;;;;;459.40;434.70;;;5.90;47.30;;;;;;4993622;28;20668;-69
2022/10/09 05:07:47;;;;;;;475.07;449.83;;;5.90;47.80;;;;;;4993624;28;20668;-69
2022/10/09 05:10:13;;;;;;;499.23;475.23;;;5.80;47.10;;;;;;4993463;28;20735;-69
2022/10/09 05:12:38;;;;;;;375.47;355.00;;;5.70;48.10;;;;;;4993347;28;20645;-69
2022/10/09 05:15:05;;;;;;;393.80;374.40;;;5.60;47.20;;;;;;4993405;28;20176;-69
2022/10/09 05:17:30;;;;;;;413.57;391.70;;;5.60;48.20;;;;;;4992192;28;20582;-69
2022/10/09 05:19:56;;;;;;;492.10;466.00;;;5.60;48.70;;;;;;4993156;28;20428;-69
2022/10/09 05:22:21;;;;;;;469.87;447.77;;;5.70;48.70;;;;;;4992670;28;20179;-69
2022/10/09 05:24:47;;;;;;;514.53;488.13;;;5.70;49.90;;;;;;4993174;28;20179;-68
2022/10/09 05:27:12;;;;;;;429.67;408.67;;;5.80;50.10;;;;;;4993316;28;20175;-68
2022/10/09 05:29:38;;;;;;;536.30;509.83;;;5.80;49.30;;;;;;4993111;28;20200;-69
2022/10/09 05:32:03;;;;;;;435.00;413.13;;;5.90;51.00;;;;;;4993010;28;20260;-68
2022/10/09 05:34:29;;;;;;;489.67;465.73;;;6.00;49.40;;;;;;4991846;28;20188;-69
2022/10/09 05:36:54;;;;;;;472.77;448.17;;;6.00;49.90;;;;;;4993469;28;20215;-67
2022/10/09 05:39:20;;;;;;;415.60;393.90;;;6.10;49.10;;;;;;4992904;28;20269;-68
2022/10/09 05:41:45;;;;;;;467.97;444.03;;;6.10;49.50;;;;;;4993304;28;20256;-68
2022/10/09 05:44:11;;;;;;;346.03;326.77;;;6.10;49.10;;;;;;4993291;28;20228;-68
2022/10/09 05:46:37;;;;;;;290.60;273.03;;;6.00;47.90;;;;;;4993013;28;20270;-68
2022/10/09 05:49:04;;;;;;;448.40;424.50;;;5.80;46.80;;;;;;4992876;28;20241;-67
2022/10/09 05:51:32;;;;;;;471.60;448.43;;;5.70;48.50;;;;;;4992750;28;20223;-68
2022/10/09 05:54:00;;;;;;;411.00;389.70;;;5.70;48.70;;;;;;4979572;28;20439;-68
2022/10/09 05:56:33;;;;;;;474.07;450.60;;;5.70;48.70;;;;;;4973355;28;20467;-67
2022/10/09 05:58:59;;;;;;;479.77;456.27;;;5.70;48.70;;;;;;4988778;28;20443;-71
2022/10/09 06:01:28;;;;;;;426.17;404.40;;;5.70;48.70;;;;;;4973908;28;20415;-68
2022/10/09 06:03:56;;;;;;;384.53;364.43;;;5.60;48.70;;;;;;4974489;28;20408;-68
2022/10/09 06:06:24;;;;;;;424.67;403.37;;;5.60;48.70;;;;;;4973993;28;20904;-67
2022/10/09 06:08:49;;;;;;;285.43;269.13;;;5.70;49.20;;;;;;4973837;28;20482;-68
2022/10/09 06:11:19;;;;;;;340.93;322.40;;;5.70;48.80;;;;;;4972294;28;20460;-68
2022/10/09 06:13:45;;;;;;;455.23;432.33;;;5.60;48.70;;;;;;4974716;28;20180;-68
2022/10/09 06:16:13;;;;;;;522.33;496.53;;;5.70;48.70;;;;;;4974134;28;20452;-68
2022/10/09 06:18:40;;;;;;;306.88;289.50;;;5.80;48.80;;;;;;4973821;28;20433;-69
2022/10/09 06:21:06;;;;;;;437.60;413.60;;;5.70;47.00;;;;;;4983274;28;20172;-68
2022/10/09 06:23:32;;;;;;;453.87;429.97;;;5.70;48.70;;;;;;4975632;28;20430;-68
2022/10/09 06:26:03;;;;;;;485.87;461.77;;;5.80;49.40;;;;;;4974099;28;20421;-68
2022/10/09 06:28:30;;;;;;;413.90;392.30;;;5.90;48.90;;;;;;4974640;28;20440;-68
2022/10/09 06:31:17;;;;;;;462.47;438.03;;;6.00;48.20;;;;;;4974396;28;20424;-68
2022/10/09 06:33:43;;;;;;;432.50;409.03;;;6.00;47.50;;;;;;4976356;28;20787;-68
2022/10/09 06:36:15;;;;;;;546.33;517.10;;;6.00;48.00;;;;;;4978767;28;20456;-68
2022/10/09 06:38:41;;;;;;;568.00;538.80;;;6.20;49.10;;;;;;4979393;28;20519;-68
2022/10/09 06:41:16;;;;;;;485.17;460.27;;;6.40;48.60;;;;;;4979185;28;20413;-68
2022/10/09 06:43:46;;;;;;;454.20;430.73;;;6.50;49.40;;;;;;4979873;28;20472;-69
2022/10/09 06:46:12;;;;;;;417.47;396.00;;;6.80;49.60;;;;;;4996595;28;20430;-68
2022/10/09 06:48:39;;;;;;;559.77;529.37;;;6.80;46.90;;;;;;4997343;28;20518;-69
2022/10/09 06:51:11;;;;;;;488.10;461.93;;;6.90;47.10;;;;;;4996363;28;20235;-68
2022/10/09 06:53:38;;;;;;;334.40;315.07;;;7.00;44.80;;;;;;4996745;28;20443;-68
2022/10/09 06:56:04;;;;;;;379.13;358.73;;;6.90;43.30;;;;;;4995786;28;20592;-68
2022/10/09 06:58:30;;;;;;;489.97;464.30;;;6.90;43.70;;;;;;4994311;28;20423;-67
2022/10/09 07:01:12;;;;;;;457.77;432.20;;;7.10;42.90;;;;;;4986588;28;20448;-68
2022/10/09 07:03:39;;;;;;;364.90;343.67;;;7.30;42.20;;;;;;4994384;28;20177;-68
2022/10/09 07:06:20;;;;;;;379.33;356.97;;;7.40;43.00;;;;;;4991704;28;20416;-68
2022/10/09 07:08:49;;;;;;;522.00;491.70;;;7.20;42.00;;;;;;4983134;28;20788;-67
2022/10/09 07:11:21;;;;;;;484.93;459.83;;;7.50;43.90;;;;;;4994875;28;20411;-67
2022/10/09 07:13:57;;;;;;;466.30;440.67;;;7.60;40.30;;;;;;5017420;28;20388;-67
2022/10/09 07:16:29;;;;;;;484.57;457.93;;;7.50;40.80;;;;;;4999772;28;20466;-67
2022/10/09 07:18:55;;;;;;;501.73;476.73;;;7.50;43.30;;;;;;4996890;28;20441;-68
2022/10/09 07:21:21;;;;;;;417.80;395.93;;;7.70;42.90;;;;;;4995734;28;20437;-67
2022/10/09 07:23:47;;;;;;;511.60;483.73;;;7.70;40.20;;;;;;4995654;28;20463;-67
2022/10/09 07:26:26;;;;;;;437.63;414.23;;;7.50;39.40;;;;;;4987580;28;20455;-67
2022/10/09 07:28:52;;;;;;;376.77;353.77;;;7.70;42.00;;;;;;4985801;28;20684;-69
2022/10/09 07:31:18;;;;;;;475.37;449.10;;;7.60;38.90;;;;;;4982156;28;20516;-67
2022/10/09 07:33:51;;;;;;;496.43;471.00;;;7.60;40.30;;;;;;4979368;28;20418;-67
2022/10/09 07:36:18;;;;;;;462.53;437.57;;;7.70;40.20;;;;;;4995910;28;20781;-68
2022/10/09 07:38:48;;;;;;;518.67;489.87;;;7.70;40.80;;;;;;4996056;28;20451;-67
2022/10/09 07:41:14;;;;;;;450.17;425.00;;;7.60;40.70;;;;;;4995109;28;20418;-67
2022/10/09 07:43:41;;;;;;;424.20;401.77;;;7.70;40.40;;;;;;4995302;28;20408;-67
2022/10/09 07:46:10;;;;;;;509.77;483.07;;;7.70;40.40;;;;;;4995445;28;20177;-67
2022/10/09 07:48:36;;;;;;;399.90;376.80;;;7.80;40.40;;;;;;4995534;28;20425;-67
2022/10/09 07:51:10;;;;;;;454.13;428.90;;;7.90;40.60;;;;;;4994734;28;20780;-67
2022/10/09 07:53:37;;;;;;;486.83;460.67;;;8.20;40.80;;;;;;4990708;28;20973;-67
2022/10/09 07:56:03;;;;;;;695.80;651.20;;;8.50;39.30;;;;;;4975324;28;20497;-67
2022/10/09 07:58:29;;;;;;;438.93;415.53;;;8.60;34.90;;;;;;4975452;28;20458;-68
2022/10/09 08:00:55;;;;;;;471.87;444.10;;;8.80;36.10;;;;;;4987836;28;20492;-67
2022/10/09 08:03:20;;;;;;;405.87;384.20;;;9.20;33.30;;;;;;4977915;28;20440;-67
2022/10/09 08:05:55;;;;;;;451.33;425.90;;;9.30;32.90;;;;;;4990707;28;20198;-68
2022/10/09 08:08:21;;;;;;;450.93;424.50;;;9.30;32.60;;;;;;4994379;28;20219;-67
2022/10/09 08:10:47;;;;;;;356.07;332.90;;;9.60;33.50;;;;;;4980866;28;20857;-68
2022/10/09 08:13:12;;;;;;;375.07;353.37;;;9.80;33.10;;;;;;4976221;28;20578;-67
2022/10/09 08:15:42;;;;;;;406.53;383.07;;;9.80;31.40;;;;;;4975485;28;20243;-67
2022/10/09 08:18:08;;;;;;;454.93;425.73;;;9.90;29.20;;;;;;4994114;28;20264;-67
2022/10/09 08:20:34;;;;;;;467.57;438.27;;;9.90;28.80;;;;;;4984506;28;20429;-67
2022/10/09 08:22:59;;;;;;;250.20;234.50;;;9.90;28.60;;;;;;4980064;28;20448;-67
2022/10/09 08:25:25;;;;;;;443.03;415.77;;;9.90;27.70;;;;;;4990794;28;20208;-67
2022/10/09 08:27:52;;;;;;;477.50;450.97;;;10.00;27.60;;;;;;4976378;28;20263;-68
2022/10/09 08:30:18;;;;;;;485.80;454.50;;;10.10;27.80;;;;;;4991571;28;20208;-68
2022/10/09 08:32:43;;;;;;;395.97;371.33;;;10.20;26.90;;;;;;4992493;28;20445;-68
2022/10/09 08:35:09;;;;;;;467.80;438.37;;;10.40;27.40;;;;;;4994137;28;20555;-68
2022/10/09 08:37:35;;;;;;;331.50;312.70;;;10.50;26.20;;;;;;4992180;28;20227;-68
2022/10/09 08:40:01;;;;;;;330.93;309.37;;;10.70;26.50;;;;;;4987789;28;20275;-69
2022/10/09 08:42:42;;;;;;;281.07;264.47;;;10.80;26.10;;;;;;4974932;28;20428;-69
2022/10/09 08:45:14;;;;;;;477.97;449.47;;;11.00;26.40;;;;;;4975052;28;20443;-69
2022/10/09 08:47:42;;;;;;;326.13;306.73;;;11.20;25.60;;;;;;4975246;28;20436;-69
2022/10/09 08:50:14;;;;;;;524.50;492.73;;;11.30;24.40;;;;;;4980409;28;20475;-69
2022/10/09 08:52:45;;;;;;;309.13;290.37;;;11.50;24.70;;;;;;4988566;28;20429;-69
2022/10/09 08:55:22;;;;;;;311.73;292.47;;;11.60;23.70;;;;;;4974800;28;20457;-67
2022/10/09 08:57:51;;;;;;;538.47;499.83;;;11.80;23.50;;;;;;4987258;28;20470;-67
2022/10/09 09:00:19;;;;;;;460.17;426.83;;;12.00;22.30;;;;;;4976242;28;20504;-68
2022/10/09 09:02:44;;;;;;;331.30;311.13;;;12.20;21.20;;;;;;4974648;28;20542;-68
2022/10/09 09:05:29;;;;;;;409.97;382.60;;;12.40;21.00;;;;;;4974886;28;20507;-68
2022/10/09 09:08:18;;;;;;;636.93;585.43;;;12.50;21.30;;;;;;4975715;28;20184;-68
2022/10/09 09:10:52;;;;;;;389.57;367.50;;;12.70;21.40;;;;;;4983834;28;20436;-68
2022/10/09 09:13:44;;;;;;;442.97;416.20;;;12.90;19.80;;;;;;4993350;28;20920;-68
2022/10/09 09:16:38;;;;;;;432.40;402.20;;;13.10;18.80;;;;;;4993595;28;20474;-68
2022/10/09 09:19:23;;;;;;;474.77;446.90;;;13.30;17.60;;;;;;4991539;28;20488;-68
2022/10/09 09:21:51;;;;;;;391.77;364.10;;;13.50;14.00;;;;;;4992184;28;21039;-68
2022/10/09 09:24:26;;;;;;;434.50;406.13;;;13.70;13.40;;;;;;4983579;28;20473;-69
2022/10/09 09:26:58;;;;;;;567.67;534.00;;;13.90;12.40;;;;;;4989033;28;20430;-67
2022/10/09 09:29:25;;;;;;;469.17;437.83;;;14.10;13.50;;;;;;4975680;28;20967;-68
2022/10/09 09:31:58;;;;;;;454.80;423.90;;;14.10;14.20;;;;;;4976536;28;20432;-68
2022/10/09 09:34:39;;;;;;;457.67;422.83;;;14.20;13.80;;;;;;4991418;28;20439;-67
2022/10/09 09:37:04;;;;;;;468.53;436.27;;;14.10;13.70;;;;;;4993104;28;20463;-68
2022/10/09 09:39:32;;;;;;;381.60;356.37;;;14.10;14.20;;;;;;4992149;28;20460;-68
2022/10/09 09:42:13;;;;;;;463.70;429.13;;;14.20;13.10;;;;;;4975177;28;20181;-68
2022/10/09 09:44:43;;;;;;;492.30;461.87;;;14.30;13.70;;;;;;4979320;28;20423;-69
2022/10/09 09:47:21;;;;;;;655.60;604.10;;;14.40;12.70;;;;;;4984117;28;20512;-68
2022/10/09 09:49:56;;;;;;;546.00;514.53;;;14.50;9.90;;;;;;4975056;28;20828;-68
2022/10/09 09:52:25;;;;;;;385.80;361.97;;;14.60;10.30;;;;;;4991858;28;20928;-69
2022/10/09 09:54:50;;;;;;;413.07;387.83;;;14.70;10.10;;;;;;4993183;28;20869;-69
2022/10/09 09:57:41;;;;;;;563.37;522.53;;;14.90;9.40;;;;;;4990514;28;20558;-69
2022/10/09 10:00:21;;;;;;;431.67;399.63;;;15.00;8.60;;;;;;4990101;28;20208;-69
2022/10/09 10:02:47;;;;;;;598.43;547.57;;;15.00;8.40;;;;;;4982177;28;20443;-69
2022/10/09 10:05:25;;;;;;;643.37;592.03;;;15.00;7.90;;;;;;4977249;28;20446;-70
2022/10/09 10:07:51;;;;;;;553.33;507.03;;;15.00;8.70;;;;;;4992447;28;20511;-69
2022/10/09 10:10:25;;;;;;;466.47;435.03;;;15.00;8.70;;;;;;4987903;28;20452;-70
2022/10/09 10:12:51;;;;;;;548.20;503.17;;;15.10;8.80;;;;;;4974682;28;20523;-69
2022/10/09 10:15:25;;;;;;;603.30;555.03;;;15.20;8.20;;;;;;4974183;28;20531;-68
2022/10/09 10:18:17;;;;;;;420.30;387.77;;;15.30;7.80;;;;;;4973812;28;20215;-67
2022/10/09 10:20:44;;;;;;;450.00;420.60;;;15.40;8.00;;;;;;4980782;28;20432;-67
2022/10/09 10:23:28;;;;;;;473.07;439.40;;;15.40;7.40;;;;;;4992385;28;20490;-67
2022/10/09 10:25:56;;;;;;;553.73;516.60;;;15.30;7.90;;;;;;4976006;28;20428;-69
2022/10/09 10:28:29;;;;;;;429.17;401.20;;;15.30;8.60;;;;;;4973467;28;20816;-69
2022/10/09 10:30:56;;;;;;;574.63;536.13;;;15.30;7.60;;;;;;4983155;28;20518;-68
2022/10/09 10:33:28;;;;;;;565.63;525.47;;;15.30;7.20;;;;;;4992301;28;20434;-69
2022/10/09 10:35:56;;;;;;;610.53;566.20;;;15.50;7.90;;;;;;4992434;28;20555;-69
2022/10/09 10:38:31;;;;;;;571.90;533.43;;;15.50;7.00;;;;;;4992462;28;20463;-69
2022/10/09 10:41:28;;;;;;;613.20;565.10;;;15.40;7.30;;;;;;4982543;28;20432;-69
2022/10/09 10:44:00;;;;;;;501.57;466.47;;;15.50;7.00;;;;;;4992056;28;20959;-68
2022/10/09 10:46:29;;;;;;;860.67;772.83;;;15.40;7.00;;;;;;4991122;28;20435;-68
2022/10/09 10:48:57;;;;;;;639.43;594.90;;;15.50;6.70;;;;;;4992189;28;20877;-68
2022/10/09 10:51:28;;;;;;;359.23;334.60;;;15.40;6.00;;;;;;4979211;28;20432;-69
2022/10/09 10:54:18;;;;;;;500.00;461.20;;;15.50;7.10;;;;;;4973439;28;20468;-69
2022/10/09 10:56:54;;;;;;;643.43;590.00;;;15.60;6.20;;;;;;4971812;28;20475;-68
2022/10/09 10:59:49;;;;;;;669.00;621.37;;;15.70;5.80;;;;;;4974260;28;20822;-68
2022/10/09 11:03:06;;;;;;;475.77;440.20;;;15.80;4.90;;;;;;4972735;28;20405;-68
2022/10/09 11:05:46;;;;;;;537.93;499.27;;;15.90;4.80;;;;;;4978202;28;20432;-69
2022/10/09 11:08:17;;;;;;;551.63;513.60;;;16.00;5.10;;;;;;4987953;28;20432;-69
2022/10/09 11:10:48;;;;;;;534.53;493.33;;;16.10;4.90;;;;;;4971752;28;20416;-68
2022/10/09 11:13:31;;;;;;;473.50;441.27;;;16.30;5.70;;;;;;4974015;28;20428;-69
2022/10/09 11:16:32;;;;;;;614.83;573.40;;;16.30;5.00;;;;;;4973151;28;20460;-68
2022/10/09 11:19:36;;;;;;;543.93;507.10;;;16.40;5.10;;;;;;4982048;28;20447;-68
2022/10/09 11:22:25;;;;;;;535.10;499.60;;;16.40;5.10;;;;;;4994489;28;20423;-68
2022/10/09 11:25:20;;;;;;;640.03;593.73;;;16.50;5.20;;;;;;4976780;28;20439;-68
2022/10/09 11:28:13;;;;;;;638.93;593.10;;;16.60;5.20;;;;;;4976634;28;20428;-68
2022/10/09 11:30:50;;;;;;;541.30;502.03;;;16.70;5.30;;;;;;4976114;28;20440;-68
2022/10/09 11:33:29;;;;;;;689.57;638.93;;;16.90;5.40;;;;;;4976599;28;20440;-69
2022/10/09 11:36:11;;;;;;;660.83;613.20;;;16.90;4.70;;;;;;4976446;28;20463;-69
2022/10/09 11:38:46;;;;;;;575.10;533.90;;;16.80;5.10;;;;;;4979170;28;20502;-68
2022/10/09 11:41:12;;;;;;;800.17;720.07;;;16.90;4.10;;;;;;4995688;28;20411;-68
2022/10/09 11:44:00;;;;;;;595.17;551.27;;;16.70;4.50;;;;;;4993769;28;20522;-68
2022/10/09 11:46:42;;;;;;;628.90;582.90;;;16.70;5.30;;;;;;4995891;28;20419;-68
2022/10/09 11:49:21;;;;;;;695.00;640.40;;;16.70;5.30;;;;;;4984518;28;20460;-68
2022/10/09 11:52:12;;;;;;;530.70;494.63;;;16.70;5.30;;;;;;4981233;28;20940;-68
2022/10/09 11:54:37;;;;;;;489.70;459.03;;;16.70;5.30;;;;;;4975253;28;20436;-69
2022/10/09 11:57:04;;;;;;;408.00;377.53;;;16.90;5.40;;;;;;4975885;28;20490;-69
2022/10/09 11:59:35;;;;;;;559.00;524.40;;;17.10;5.60;;;;;;4977803;28;20296;-69
2022/10/09 12:02:34;;;;;;;599.63;553.33;;;17.20;5.20;;;;;;4985474;28;20467;-69
2022/10/09 12:04:59;;;;;;;613.53;570.63;;;17.30;4.40;;;;;;4962108;28;20444;-69
2022/10/09 12:07:37;;;;;;;535.73;500.77;;;17.10;4.70;;;;;;4993313;28;20560;-69
2022/10/09 12:10:20;;;;;;;623.60;581.37;;;17.00;5.50;;;;;;4979079;28;20691;-69
2022/10/09 12:12:55;;;;;;;611.00;567.53;;;17.00;5.50;;;;;;4975360;28;20464;-69
2022/10/09 12:15:38;;;;;;;539.20;500.50;;;17.00;5.30;;;;;;4975452;28;20432;-69
2022/10/09 12:18:24;;;;;;;557.93;514.70;;;16.90;5.40;;;;;;4976495;28;20433;-67
2022/10/09 12:20:51;;;;;;;604.27;562.33;;;16.90;5.40;;;;;;4975028;28;20428;-68
2022/10/09 12:23:21;;;;;;;474.50;440.50;;;16.80;5.30;;;;;;4979322;28;20428;-68
2022/10/09 12:25:47;;;;;;;615.73;572.27;;;16.70;5.30;;;;;;4994749;28;20424;-68
2022/10/09 12:28:51;;;;;;;466.33;433.00;;;16.80;5.30;;;;;;4992957;28;20800;-68
2022/10/09 12:31:21;;;;;;;645.40;593.13;;;16.80;5.40;;;;;;4933731;29;20426;-68
2022/10/09 12:34:01;;;;;;;708.67;654.90;;;16.80;5.30;;;;;;4984602;28;20416;-68
2022/10/09 12:36:28;;;;;;;572.17;534.77;;;16.80;5.80;;;;;;4976884;28;20464;-69